Presque Isle, ME

2:54 AM EST on February 23, 2017 (GMT -0500)
Northern Maine Regional At Presque Isle | | Change Station
Active Advisory: Special Statement

Elev 531 ft 46.69 °N, 68.04 °W | Updated 16 minutes ago

Partly Cloudy
Partly Cloudy
19 °F
Feels Like 19 °F
N
0
Wind Variable Wind from North

Today
High -- | Low -- °F
--% Chance of Precip.
Yesterday
High -- | Low -- °F
Precip. -- in
Pressure 29.83 in
Visibility 10.0 miles
Clouds Few 200 ft
Dew Point 18 °F
Humidity 93%
Rainfall 0.00 in
Snow Depth Not available.
6:22 AM 5:09 PM
Waning Crescent, 12% visible
SPECI KPQI 230738Z AUTO 00000KT 10SM FEW002 M07/M08 A2983 RMK AO2 FZRANO
Pressure 29.83 in
Visibility 10.0 miles
Clouds Few 200 ft
Dew Point 18 °F
Humidity 93%
Rainfall 0.00 in
Snow Depth Not available.
6:22 AM 5:09 PM
Waning Crescent, 12% visible
SPECI KPQI 230738Z AUTO 00000KT 10SM FEW002 M07/M08 A2983 RMK AO2 FZRANO

Get Your Daily Forecast Email!

Thanks for signing up!

Be on the lookout for a verification email in your inbox.

You'll start receiving the daily forecast at 8 AM.

×

10-Day Weather Forecast

Almanac

Astronomy

Feb. 23, 2017 Rise Set
Actual Time
Civil Twilight
Nautical Twilight
Astronomical Twilight
Moon
Length of Visible Light
Length of Day
Tomorrow will be .
, % of the Moon is Illuminated

Today's Extremes

State Highs State Lows

Community

WunderPhotos

Upload Photos

1,962,540 photos uploaded!

WunderBlog® & News

Nearby

Air Quality

  Air Quality AQ Index Pollutant
Not available.

Snow Depth

Station Depth Elevation

Earthquake Activity

City Distance Mag. Time & Date
Minimum magnitude displayed is 2.5.

Coastal Water Temperatures

Place Temperature

Stations

Nearby Weather Stations

Station Location Temp. Windchill Dew Point Humidity Wind Precip. Elev Updated Type
                   

Watches & Warnings

Special Statement
Issued: 2:44 AM EST Feb. 23, 2017 – National Weather Service

... Some icy spot on roads can be expected this morning...

Patchy fog with temperatures well below freezing this morning
will lead to icy spots on roads through the morning commute.

Motorists and pedestrians are advised to take extra caution due
to slippery conditions on roadways and sidewalks.


Hewitt


244 am EST Thu Feb 23 2017

... Some icy spot on roads can be expected this morning...

Patchy fog with temperatures well below freezing this morning
will lead to icy spots on roads through the morning commute.

Motorists and pedestrians are advised to take extra caution due
to slippery conditions on roadways and sidewalks.


Hewitt